Laukariz II — EA4191 — position and weather

sailwx.info

Track history (hours):
 
Tides and Currents Weather Stations Pressure Air Temp Water Temp Dewpoint Dewpoint Depression Visibility Wind Speed Wind Dir Waves Ship Positions

Laukariz II

Last reported at 2017-Sep-26 14:44 UTC. Time now 2017-Oct-19 16:54 UTC.
Position N 43°20' W 003°01'.
Warning: this ship's position is 23 days out of date.

Length 23 m.

Type: Pleasure craft. MMSI: 224117840.

Date/timePositionNaut miles runAvg speedWind from/ knotsBaromVisibWave heightAir tempDewpointWater temp
2017-Sep-26 14:44N 43°20' W 003°01'0 0.0
2017-Sep-26 14:29N 43°20' W 003°01'0 0.0
2017-Sep-26 13:59N 43°20' W 003°01'1 1.5
2017-Sep-26 13:30N 43°21' W 003°02'5 9.5
2017-Sep-26 13:00N 43°24' W 003°07'510.1
2017-Sep-26 12:30N 43°26' W 003°13'5 9.9
2017-Sep-26 12:00N 43°29' W 003°19'510.0
2017-Sep-26 11:29N 43°31' W 003°25'5 9.8
2017-Sep-26 10:59N 43°32' W 003°32'174 9.5
2017-Sep-25 16:37N 43°48' W 007°31'1 9.3
2017-Sep-25 16:30N 43°48' W 007°33'  
2017-Sep-21 09:26N 39°10' W 009°30'4 9.5
2017-Sep-21 08:59N 39°06' W 009°30'  
Track history (hours):
 
Tides and Currents Weather Stations Pressure Air Temp Water Temp Dewpoint Dewpoint Depression Visibility Wind Speed Wind Dir Waves Ship Positions

Laukariz II

Last reported at 2017-Sep-26 14:44 UTC. Time now 2017-Oct-19 16:54 UTC.
Position N 43°20' W 003°01'.
Warning: this ship's position is 23 days out of date.

Length 23 m.

Type: Pleasure craft. MMSI: 224117840.

Date/timePositionNaut miles runAvg speedWind from/ knotsBaromVisibWave heightAir tempDewpointWater temp
2017-Sep-26 14:44N 43°20' W 003°01'0 0.0
2017-Sep-26 14:29N 43°20' W 003°01'0 0.0
2017-Sep-26 13:59N 43°20' W 003°01'1 1.5
2017-Sep-26 13:30N 43°21' W 003°02'5 9.5
2017-Sep-26 13:00N 43°24' W 003°07'510.1
2017-Sep-26 12:30N 43°26' W 003°13'5 9.9
2017-Sep-26 12:00N 43°29' W 003°19'510.0
2017-Sep-26 11:29N 43°31' W 003°25'5 9.8
2017-Sep-26 10:59N 43°32' W 003°32'174 9.5
2017-Sep-25 16:37N 43°48' W 007°31'1 9.3
2017-Sep-25 16:30N 43°48' W 007°33'  
2017-Sep-21 09:26N 39°10' W 009°30'4 9.5
2017-Sep-21 08:59N 39°06' W 009°30'  

Dump ship's entire track history